QF74 / VH-OJT 7700 Squawk Report (12th of November, 2017)

Aircraft B744 Reg No. VH-OJT Age 18 years old
Model 747 Jet engines 4 First flight 15-01-99
Registered 28-10-99 Rollout N/A Delivered 26-10-99
Construction No. 25565 Line No. 1233 Series 438
ADSHEX 7C4837 Airline name Qantas Airways Owner N/A
Airfield based Sydney-K.Smith~NSW~VH First tracked 2011-04-01 16:11:04

Flight history for VH-OJT

Route Flight No Date Playback
Sydney Intl (SYD) - Tokyo Intl (HND) QF25 2017-11-23 19:28:00
John F Kennedy Intl (JFK) - Los Angeles Intl (LAX) - Sydney Intl (SYD) QF12 2017-11-22 21:08:00
Brisbane Intl (BNE) - Los Angeles Intl (LAX) QF15 2017-11-22 05:45:00
Brisbane Intl (BNE) - Los Angeles Intl (LAX) QF15 2017-11-21 14:02:00
Los Angeles Intl (LAX) - Brisbane Intl (BNE) QF16 2017-11-21 01:42:00
Los Angeles Intl (LAX) - Brisbane Intl (BNE) QF16 2017-11-20 09:23:00
John F Kennedy Intl (JFK) - Los Angeles Intl (LAX) - Sydney Intl (SYD) QF12 2017-11-20 06:24:00
Sydney Intl (SYD) - Los Angeles Intl (LAX) - John F Kennedy Intl (JFK) QF11 2017-11-20 00:36:00
Brisbane Intl (BNE) - Los Angeles Intl (LAX) QF15 2017-11-19 18:06:00
Los Angeles Intl (LAX) - Brisbane Intl (BNE) QF16 2017-11-19 01:58:00
Los Angeles Intl (LAX) - Brisbane Intl (BNE) QF16 2017-11-18 09:15:00
John F Kennedy Intl (JFK) - Los Angeles Intl (LAX) - Sydney Intl (SYD) QF12 2017-11-18 07:26:00
Sydney Intl (SYD) - Los Angeles Intl (LAX) - John F Kennedy Intl (JFK) QF11 2017-11-17 23:20:00
Brisbane Intl (BNE) - Los Angeles Intl (LAX) QF15 2017-11-17 17:03:00
Los Angeles Intl (LAX) - Brisbane Intl (BNE) QF16 2017-11-16 22:16:00
Los Angeles Intl (LAX) - Brisbane Intl (BNE) QF16 2017-11-16 08:54:00
Brisbane Intl (BNE) - Los Angeles Intl (LAX) QF15 2017-11-16 07:01:00
Brisbane Intl (BNE) - Los Angeles Intl (LAX) QF15 2017-11-15 13:41:00
Los Angeles Intl (LAX) - Brisbane Intl (BNE) QF16 2017-11-15 01:36:00
Los Angeles Intl (LAX) - Brisbane Intl (BNE) QF16 2017-11-14 08:26:00
Time Lat Lon Altitude Heading Speed Vertical Rate
2017-11-12 23:18:30 GMT -33.93401 151.16776 0 0 4 0
2017-11-12 23:17:58 GMT -33.93378 151.16858 0 0 6 0
2017-11-12 23:17:50 GMT -33.93382 151.16879 0 0 6 0
2017-11-12 23:17:39 GMT -33.93413 151.16898 0 0 7 0
2017-11-12 23:17:32 GMT -33.93430 151.16901 0 0 7 0
2017-11-12 23:17:29 GMT -33.93443 151.16907 0 0 6 0
2017-11-12 23:17:17 GMT -33.93466 151.16911 0 0 5 0
2017-11-12 23:17:07 GMT -33.93481 151.16917 0 0 3 0
2017-11-12 23:17:05 GMT -33.93483 151.16917 0 0 3 0
2017-11-12 23:13:34 GMT -33.93506 151.16940 0 0 3 0
2017-11-12 23:13:32 GMT -33.93507 151.16943 0 0 3 0
2017-11-12 23:12:56 GMT -33.93501 151.17039 0 0 8 0
2017-11-12 23:12:25 GMT -33.93444 151.17146 0 0 8 0
2017-11-12 23:11:52 GMT -33.93417 151.17287 0 0 8 0
2017-11-12 23:11:19 GMT -33.93393 151.17422 0 0 4 0
2017-11-12 23:10:34 GMT -33.93388 151.17442 0 0 4 0
2017-11-12 23:09:59 GMT -33.93364 151.17554 0 0 7 0
2017-11-12 23:09:28 GMT -33.93273 151.17564 0 0 8 0
2017-11-12 23:09:27 GMT -33.93272 151.17563 0 0 8 0
2017-11-12 23:08:52 GMT -33.93154 151.17534 0 0 8 0
2017-11-12 23:08:04 GMT -33.93015 151.17567 0 0 7 0
2017-11-12 23:07:32 GMT -33.93014 151.17673 0 0 6 0
2017-11-12 23:07:00 GMT -33.92943 151.17699 0 0 5 0
We lost coverage of the aircraft here for a total of 145 minutes
2017-11-12 20:42:08 GMT -33.92825 151.17674 0 0 2 0
2017-11-12 20:41:32 GMT -33.92828 151.17702 0 0 1 0
2017-11-12 20:41:26 GMT -33.92829 151.17705 0 0 2 0
2017-11-12 20:41:15 GMT -33.92831 151.17719 0 0 4 0
2017-11-12 20:41:04 GMT -33.92834 151.17734 0 0 3 0
2017-11-12 20:40:48 GMT -33.92838 151.17754 0 0 3 0
2017-11-12 20:40:41 GMT -33.92839 151.17763 0 0 1 0
2017-11-12 20:40:30 GMT -33.92841 151.17770 0 0 3 0
2017-11-12 20:40:16 GMT -33.92842 151.17786 0 0 2 0
2017-11-12 20:38:58 GMT -33.92838 151.17751 0 0 4 0
2017-11-12 20:38:48 GMT -33.92845 151.17735 0 0 5 0
2017-11-12 20:38:38 GMT -33.92859 151.17722 0 0 3 0
2017-11-12 20:38:24 GMT -33.92874 151.17712 0 0 4 0
2017-11-12 20:38:13 GMT -33.92891 151.17709 0 0 4 0
2017-11-12 20:38:09 GMT -33.92897 151.17706 0 0 4 0
2017-11-12 20:38:03 GMT -33.92907 151.17705 0 0 4 0
2017-11-12 20:37:53 GMT -33.92926 151.17702 0 0 5 0
2017-11-12 20:36:33 GMT -33.92994 151.17525 0 0 12 0
2017-11-12 20:36:01 GMT -33.92962 151.17322 0 0 12 0
2017-11-12 20:32:50 GMT -33.92974 151.17004 0 0 3 0
2017-11-12 20:32:38 GMT -33.92979 151.16985 0 0 5 0
2017-11-12 20:32:23 GMT -33.92989 151.16943 0 0 7 0
2017-11-12 20:32:15 GMT -33.93008 151.16917 0 0 8 0
2017-11-12 20:32:03 GMT -33.93052 151.16910 0 0 10 0
2017-11-12 20:31:52 GMT -33.93103 151.16924 0 0 12 0
2017-11-12 20:31:44 GMT -33.93146 151.16934 0 0 12 0
2017-11-12 20:31:41 GMT -33.93160 151.16937 0 0 12 0
2017-11-12 20:31:31 GMT -33.93215 151.16953 0 0 10 0
2017-11-12 20:31:29 GMT -33.93218 151.16953 0 0 12 0
2017-11-12 20:31:20 GMT -33.93261 151.16972 0 0 12 0
2017-11-12 20:31:02 GMT -33.93335 151.17050 0 0 12 0
2017-11-12 20:30:50 GMT -33.93388 151.17073 0 0 12 0
2017-11-12 20:30:46 GMT -33.93408 151.17079 0 0 12 0
2017-11-12 20:30:44 GMT -33.93418 151.17081 0 0 12 0
2017-11-12 20:30:39 GMT -33.93444 151.17088 0 0 12 0
2017-11-12 20:30:23 GMT -33.93528 151.17110 0 0 12 0
2017-11-12 20:30:16 GMT -33.93561 151.17117 0 0 12 0
2017-11-12 20:30:04 GMT -33.93621 151.17133 0 0 12 0
We lost coverage of the aircraft here for a total of 59 minutes
2017-11-12 19:31:30 GMT -33.93709 151.17059 0 272 7 0
2017-11-12 19:31:17 GMT -33.93713 151.17110 0 278 6 0
2017-11-12 19:31:11 GMT -33.93713 151.17126 0 292 7 0
2017-11-12 19:31:05 GMT -33.93718 151.17146 0 317 7 0
2017-11-12 19:31:03 GMT -33.93724 151.17152 0 331 7 0
2017-11-12 19:31:00 GMT -33.93730 151.17157 0 340 7 0
2017-11-12 19:30:54 GMT -33.93748 151.17166 0 345 9 0
2017-11-12 19:30:50 GMT -33.93761 151.17169 0 345 10 0
2017-11-12 19:30:46 GMT -33.93779 151.17175 0 348 11 0
2017-11-12 19:30:39 GMT -33.93820 151.17186 0 348 14 0
2017-11-12 19:30:35 GMT -33.93842 151.17191 0 348 15 0
2017-11-12 19:30:24 GMT -33.93928 151.17213 0 348 19 0
2017-11-12 19:30:15 GMT -33.93998 151.17232 0 348 18 0
2017-11-12 19:30:13 GMT -33.94019 151.17238 0 348 19 0
2017-11-12 19:30:04 GMT -33.94089 151.17255 0 348 20 0
2017-11-12 19:30:00 GMT -33.94127 151.17262 0 348 18 0
2017-11-12 19:29:50 GMT -33.94218 151.17288 0 345 17 0
2017-11-12 19:29:40 GMT -33.94281 151.17314 0 323 16 0
2017-11-12 19:29:30 GMT -33.94332 151.17361 0 317 15 0
2017-11-12 19:29:21 GMT -33.94374 151.17409 0 317 15 0
2017-11-12 19:29:19 GMT -33.94390 151.17422 0 317 16 0
2017-11-12 19:29:12 GMT -33.94450 151.17485 0 323 22 0
2017-11-12 19:29:09 GMT -33.94461 151.17493 0 326 23 0
2017-11-12 19:29:03 GMT -33.94523 151.17542 0 334 27 0
2017-11-12 19:29:00 GMT -33.94556 151.17558 0 337 28 0
2017-11-12 19:28:57 GMT -33.94568 151.17564 0 337 29 0
2017-11-12 19:28:52 GMT -33.94651 151.17599 0 343 33 0
2017-11-12 19:28:47 GMT -33.94715 151.17621 0 345 41 0
2017-11-12 19:28:44 GMT -33.94778 151.17636 0 348 48 0
2017-11-12 19:28:42 GMT -33.94849 151.17661 0 348 55 0
2017-11-12 19:28:40 GMT -33.94862 151.17661 0 348 55 0
2017-11-12 19:28:36 GMT -33.94981 151.17697 0 348 70 0
2017-11-12 19:28:31 GMT -33.95175 151.17744 0 348 86 0
2017-11-12 19:28:27 GMT -33.95292 151.17775 0 5 100 0
2017-11-12 19:28:24 GMT -33.95459 151.17825 0 5 120 0
2017-11-12 19:28:20 GMT -33.95740 151.17899 0 5 140 0
2017-11-12 19:28:14 GMT -33.96107 151.17982 -275 348 146 -128
2017-11-12 19:28:12 GMT -33.96277 151.18040 -250 348 147 -576
2017-11-12 19:28:09 GMT -33.96475 151.18086 -200 349 147 -704
2017-11-12 19:28:05 GMT -33.96698 151.18140 -150 349 146 -832
2017-11-12 19:28:03 GMT -33.96840 151.18175 -125 349 146 -832
2017-11-12 19:28:01 GMT -33.97047 151.18230 -75 348 145 -768
2017-11-12 19:27:58 GMT -33.97215 151.18282 -50 348 146 -768
2017-11-12 19:27:51 GMT -33.97666 151.18401 25 348 146 -768
2017-11-12 19:27:48 GMT -33.97778 151.18420 50 349 147 -640
2017-11-12 19:27:46 GMT -33.97973 151.18469 75 349 147 -960
2017-11-12 19:27:43 GMT -33.98195 151.18523 125 349 147 -832
2017-11-12 19:27:40 GMT -33.98388 151.18571 175 349 146 -832
2017-11-12 19:27:36 GMT -33.98557 151.18622 200 349 146 -832
2017-11-12 19:27:31 GMT -33.98969 151.18723 300 349 146 -768
2017-11-12 19:27:29 GMT -33.99069 151.18764 300 349 147 -768
2017-11-12 19:27:27 GMT -33.99257 151.18796 350 348 147 -832
2017-11-12 19:27:23 GMT -33.99500 151.18864 400 348 147 -832
2017-11-12 19:27:18 GMT -33.99812 151.18950 450 348 146 -704
2017-11-12 19:27:16 GMT -34.00021 151.19009 500 348 146 -768
2017-11-12 19:27:12 GMT -34.00282 151.19083 550 348 146 -768
2017-11-12 19:27:10 GMT -34.00348 151.19099 550 349 146 -832
2017-11-12 19:27:08 GMT -34.00548 151.19148 600 348 146 -896
2017-11-12 19:27:05 GMT -34.00650 151.19167 625 348 145 -896
2017-11-12 19:27:01 GMT -34.00978 151.19257 700 348 146 -704
2017-11-12 19:26:58 GMT -34.01176 151.19305 725 349 145 -640
2017-11-12 19:26:55 GMT -34.01283 151.19339 750 349 145 -704
2017-11-12 19:26:53 GMT -34.01477 151.19389 775 349 145 -704
2017-11-12 19:26:50 GMT -34.01707 151.19437 825 349 147 -704
2017-11-12 19:26:48 GMT -34.01875 151.19492 850 349 147 -768
2017-11-12 19:26:46 GMT -34.02008 151.19525 875 349 147 -768
2017-11-12 19:26:44 GMT -34.02070 151.19539 875 349 147 -768
2017-11-12 19:26:42 GMT -34.02205 151.19574 925 348 147 -704
2017-11-12 19:26:39 GMT -34.02480 151.19643 975 348 146 -896
2017-11-12 19:26:34 GMT -34.02768 151.19711 1,025 349 147 -768
2017-11-12 19:26:32 GMT -34.02855 151.19733 1,050 349 147 -832
2017-11-12 19:26:28 GMT -34.03226 151.19833 1,125 348 147 -704
2017-11-12 19:26:25 GMT -34.03359 151.19872 1,150 348 147 -832
2017-11-12 19:26:22 GMT -34.03601 151.19923 1,200 348 148 -896
2017-11-12 19:26:14 GMT -34.04182 151.20085 1,300 349 154 -768
2017-11-12 19:26:12 GMT -34.04291 151.20107 1,325 349 155 -960
2017-11-12 19:26:05 GMT -34.04798 151.20255 1,450 348 158 -896
2017-11-12 19:26:03 GMT -34.04947 151.20290 1,475 348 159 -768
2017-11-12 19:26:01 GMT -34.05057 151.20309 1,475 349 159 -832
2017-11-12 19:25:59 GMT -34.05194 151.20343 1,500 349 159 -704
2017-11-12 19:25:54 GMT -34.05592 151.20454 1,575 349 160 -896
2017-11-12 19:25:52 GMT -34.05748 151.20496 1,625 349 160 -896
2017-11-12 19:25:49 GMT -34.05962 151.20552 1,675 348 162 -896
2017-11-12 19:25:41 GMT -34.06437 151.20667 1,775 348 168 -832
2017-11-12 19:25:39 GMT -34.06711 151.20752 1,800 348 171 -960
2017-11-12 19:25:37 GMT -34.06787 151.20769 1,825 348 171 -960
2017-11-12 19:25:31 GMT -34.07363 151.20918 1,950 348 178 -1024
2017-11-12 19:25:29 GMT -34.07483 151.20943 1,975 348 179 -896
2017-11-12 19:25:27 GMT -34.07652 151.20982 2,000 348 181 -1024
2017-11-12 19:25:19 GMT -34.08311 151.21150 2,175 350 189 -896
2017-11-12 19:25:17 GMT -34.08546 151.21210 2,200 350 189 -1088
2017-11-12 19:25:16 GMT -34.08583 151.21210 2,200 350 189 -1088
2017-11-12 19:25:15 GMT -34.08583 151.21210 2,200 350 189 -1088
2017-11-12 19:25:09 GMT -34.09230 151.21376 2,300 349 189 -512
2017-11-12 19:25:05 GMT -34.09529 151.21442 2,350 348 191 -512
2017-11-12 19:24:58 GMT -34.10142 151.21616 2,400 346 195 -448
2017-11-12 19:24:56 GMT -34.10362 151.21700 2,425 347 196 -384
2017-11-12 19:24:56 GMT -34.10362 151.21700 2,425 347 199 -192
2017-11-12 19:24:54 GMT -34.10519 151.21725 2,425 347 197 -256
2017-11-12 19:24:47 GMT -34.11166 151.21915 2,450 351 202 -256
2017-11-12 19:24:45 GMT -34.11301 151.21935 2,475 352 201 -384
2017-11-12 19:24:42 GMT -34.11581 151.21971 2,475 356 200 -256
2017-11-12 19:24:34 GMT -34.12353 151.21930 2,525 9 194 -448
2017-11-12 19:24:31 GMT -34.12587 151.21890 2,550 10 194 -448
2017-11-12 19:24:24 GMT -34.13251 151.21733 2,600 10 195 -448
2017-11-12 19:24:22 GMT -34.13401 151.21713 2,625 10 195 -320
2017-11-12 19:24:20 GMT -34.13573 151.21674 2,625 10 195 -448
2017-11-12 19:24:12 GMT -34.14331 151.21498 2,700 10 194 -384
2017-11-12 19:24:09 GMT -34.14583 151.21439 2,725 10 194 -448
2017-11-12 19:24:02 GMT -34.15228 151.21297 2,750 11 195 -320
2017-11-12 19:23:59 GMT -34.15496 151.21227 2,775 13 196 -384
2017-11-12 19:23:57 GMT -34.15599 151.21201 2,800 14 195 -384
2017-11-12 19:23:50 GMT -34.16281 151.20905 2,825 27 200 -256
2017-11-12 19:23:48 GMT -34.16441 151.20798 2,825 32 200 -320
2017-11-12 19:23:45 GMT -34.16525 151.20729 2,825 35 200 -384
2017-11-12 19:23:40 GMT -34.17009 151.20203 2,875 51 202 -448
2017-11-12 19:23:37 GMT -34.17151 151.20018 2,900 58 203 -576
2017-11-12 19:23:34 GMT -34.17252 151.19827 2,900 60 203 -576
2017-11-12 19:23:28 GMT -34.17545 151.18987 2,975 71 212 -512
2017-11-12 19:23:26 GMT -34.17558 151.18980 2,975 71 209 -512
2017-11-12 19:23:24 GMT -34.17659 151.18538 3,000 72 211 -576
2017-11-12 19:23:17 GMT -34.17884 151.17737 3,075 71 214 -512
2017-11-12 19:23:15 GMT -34.17998 151.17406 3,100 71 215 -512
2017-11-12 19:23:13 GMT -34.17998 151.17406 3,100 71 215 -512
2017-11-12 19:23:05 GMT -34.18250 151.16487 3,175 71 216 -384
2017-11-12 19:23:01 GMT -34.18368 151.16032 3,225 71 213 -576
2017-11-12 19:22:54 GMT -34.18588 151.15118 3,300 75 215 -640
2017-11-12 19:22:52 GMT -34.18638 151.14996 3,325 87 218 -576
2017-11-12 19:22:49 GMT -34.18671 151.14761 3,325 79 216 -512
2017-11-12 19:22:44 GMT -34.18731 151.14035 3,400 94 219 -640
2017-11-12 19:22:41 GMT -34.18703 151.13554 3,425 98 219 -576
2017-11-12 19:22:39 GMT -34.18666 151.13309 3,450 104 220 -576
2017-11-12 19:22:32 GMT -34.18419 151.12621 3,500 122 219 -320
2017-11-12 19:22:30 GMT -34.18321 151.12415 3,500 133 220 -256
2017-11-12 19:22:27 GMT -34.18181 151.12109 3,525 129 220 -320
2017-11-12 19:22:22 GMT -34.17777 151.11671 3,550 143 221 -320
2017-11-12 19:22:19 GMT -34.17526 151.11453 3,575 145 220 -320
2017-11-12 19:22:16 GMT -34.17293 151.11282 3,575 154 220 -256
2017-11-12 19:22:16 GMT -34.17293 151.11282 3,575 154 220 -256
2017-11-12 19:22:10 GMT -34.16661 151.11005 3,625 168 219 -448
2017-11-12 19:22:05 GMT -34.16208 151.10921 3,675 173 219 -384
2017-11-12 19:22:01 GMT -34.15733 151.10860 3,700 174 220 -320
2017-11-12 19:21:59 GMT -34.15561 151.10831 3,700 174 220 -320
2017-11-12 19:21:54 GMT -34.15054 151.10770 3,750 174 221 -384
2017-11-12 19:21:48 GMT -34.14472 151.10704 3,775 174 221 -384
2017-11-12 19:21:46 GMT -34.14262 151.10683 3,800 174 221 -384
2017-11-12 19:21:43 GMT -34.14062 151.10658 3,800 174 222 -384
2017-11-12 19:21:39 GMT -34.13562 151.10596 3,825 174 222 -320
2017-11-12 19:21:37 GMT -34.13342 151.10568 3,850 174 224 -384
2017-11-12 19:21:36 GMT -34.13224 151.10556 3,850 174 225 -448
2017-11-12 19:21:35 GMT -34.13066 151.10533 3,850 174 224 -384
2017-11-12 19:21:33 GMT -34.12870 151.10504 3,875 174 225 -320
2017-11-12 19:21:31 GMT -34.12775 151.10489 3,875 174 225 -192
2017-11-12 19:21:26 GMT -34.12157 151.10416 3,925 174 225 -384
2017-11-12 19:21:24 GMT -34.11981 151.10406 3,925 174 226 -576
2017-11-12 19:21:20 GMT -34.11576 151.10355 3,975 174 229 -832
2017-11-12 19:21:14 GMT -34.10907 151.10265 4,050 174 230 -576
2017-11-12 19:21:11 GMT -34.10591 151.10243 4,075 174 230 -704
2017-11-12 19:21:07 GMT -34.10197 151.10187 4,100 173 229 -1216
2017-11-12 19:21:02 GMT -34.09635 151.10109 4,200 173 229 -640
2017-11-12 19:21:00 GMT -34.09410 151.10069 4,200 173 229 -832
2017-11-12 19:20:57 GMT -34.09095 151.10023 4,250 173 229 -768
2017-11-12 19:20:53 GMT -34.08634 151.09961 4,300 172 229 -704
2017-11-12 19:20:51 GMT -34.08481 151.09946 4,325 173 229 -768
2017-11-12 19:20:49 GMT -34.08270 151.09918 4,350 173 229 -768
2017-11-12 19:20:45 GMT -34.07895 151.09856 4,400 173 229 -832
2017-11-12 19:20:42 GMT -34.07465 151.09801 4,450 174 230 -704
2017-11-12 19:20:40 GMT -34.07259 151.09776 4,475 178 231 -832
2017-11-12 19:20:38 GMT -34.07107 151.09766 4,500 176 230 -704
2017-11-12 19:20:33 GMT -34.06674 151.09749 4,525 179 231 -768
2017-11-12 19:20:31 GMT -34.06183 151.09789 4,600 187 229 -768
2017-11-12 19:20:29 GMT -34.06088 151.09805 4,600 189 229 -704
2017-11-12 19:20:26 GMT -34.05922 151.09833 4,625 195 228 -768
2017-11-12 19:20:23 GMT -34.05627 151.09938 4,675 200 228 -768
2017-11-12 19:20:19 GMT -34.05110 151.10258 4,725 211 227 -1024
2017-11-12 19:20:17 GMT -34.04970 151.10332 4,750 212 228 -1088
2017-11-12 19:20:14 GMT -34.04663 151.10629 4,825 221 226 -1024
2017-11-12 19:20:12 GMT -34.04521 151.10799 4,875 222 225 -768
2017-11-12 19:20:07 GMT -34.04155 151.11134 4,950 224 222 -1152
2017-11-12 19:20:04 GMT -34.03993 151.11311 4,975 224 222 -1280
2017-11-12 19:20:00 GMT -34.03653 151.11729 5,075 224 222 -1408
2017-11-12 19:19:56 GMT -34.03313 151.12148 5,175 224 222 -1344
2017-11-12 19:19:54 GMT -34.03164 151.12238 5,225 224 222 -1472
2017-11-12 19:19:52 GMT -34.02988 151.12485 5,275 224 222 -1408
2017-11-12 19:19:50 GMT -34.02862 151.12581 5,325 224 222 -1408
2017-11-12 19:19:46 GMT -34.02521 151.13000 5,425 224 222 -1280
2017-11-12 19:19:44 GMT -34.02433 151.13084 5,450 224 222 -1152
2017-11-12 19:19:41 GMT -34.02294 151.13255 5,500 224 222 -1152
2017-11-12 19:19:39 GMT -34.02049 151.13510 5,550 224 222 -1216
2017-11-12 19:19:37 GMT -34.01861 151.13771 5,600 224 223 -1152
2017-11-12 19:19:35 GMT -34.01726 151.13937 5,625 224 224 -768
2017-11-12 19:19:33 GMT -34.01605 151.14026 5,650 224 224 -768
2017-11-12 19:19:30 GMT -34.01386 151.14281 5,675 224 225 -448
2017-11-12 19:19:28 GMT -34.01218 151.14464 5,700 224 225 -384
2017-11-12 19:19:24 GMT -34.00873 151.14890 5,725 223 227 128
2017-11-12 19:19:22 GMT -34.00729 151.14980 5,700 227 241 192
2017-11-12 19:19:20 GMT -34.00575 151.15231 5,700 223 229 -64
2017-11-12 19:19:17 GMT -34.00334 151.15494 5,725 223 229 64
2017-11-12 19:19:15 GMT -34.00246 151.15590 5,725 223 229 64
2017-11-12 19:19:12 GMT -33.99943 151.15932 5,725 223 230 -128
2017-11-12 19:19:09 GMT -33.99724 151.16106 5,700 223 232 192
2017-11-12 19:19:04 GMT -33.99328 151.16547 5,700 223 232 64
2017-11-12 19:19:01 GMT -33.98959 151.16997 5,700 224 236 64
2017-11-12 19:18:58 GMT -33.98867 151.17090 5,700 224 237 128
2017-11-12 19:18:56 GMT -33.98751 151.17279 5,700 225 239 128
2017-11-12 19:18:54 GMT -33.98497 151.17563 5,700 228 242 256
2017-11-12 19:18:49 GMT -33.98190 151.17989 5,675 233 248 64
2017-11-12 19:18:46 GMT -33.98015 151.18326 5,675 239 251 64
2017-11-12 19:18:42 GMT -33.97773 151.18823 5,675 246 256 64
2017-11-12 19:18:39 GMT -33.97587 151.19368 5,675 253 260 -256
2017-11-12 19:18:37 GMT -33.97536 151.19498 5,675 257 263 -384
2017-11-12 19:18:34 GMT -33.97452 151.19923 5,700 257 263 -384
2017-11-12 19:18:32 GMT -33.97387 151.20215 5,725 259 265 -640
2017-11-12 19:18:28 GMT -33.97294 151.20792 5,775 260 265 -576
2017-11-12 19:18:26 GMT -33.97238 151.21223 5,800 260 265 -704
2017-11-12 19:18:23 GMT -33.97205 151.21376 5,800 260 265 -768
2017-11-12 19:18:21 GMT -33.97126 151.21954 5,850 260 265 -640
2017-11-12 19:18:17 GMT -33.97046 151.22389 5,875 260 265 -768
2017-11-12 19:18:15 GMT -33.96996 151.22835 5,925 260 266 -896
2017-11-12 19:18:12 GMT -33.96949 151.23128 5,950 260 266 -1088
2017-11-12 19:18:10 GMT -33.96886 151.23555 6,000 260 265 -1536
2017-11-12 19:18:06 GMT -33.96794 151.24138 6,125 260 263 -1344
2017-11-12 19:18:04 GMT -33.96744 151.24429 6,175 261 262 -1152
2017-11-12 19:18:01 GMT -33.96707 151.24715 6,200 260 263 -1280
2017-11-12 19:17:59 GMT -33.96642 151.25146 6,275 260 264 -1088
2017-11-12 19:17:55 GMT -33.96565 151.25584 6,325 260 264 -1216
2017-11-12 19:17:53 GMT -33.96520 151.25876 6,375 260 264 -1216
2017-11-12 19:17:49 GMT -33.96442 151.26459 6,450 260 264 -1216
2017-11-12 19:17:46 GMT -33.96401 151.26750 6,475 260 264 -1216
2017-11-12 19:17:44 GMT -33.96326 151.27177 6,550 260 266 -960
2017-11-12 19:17:42 GMT -33.96279 151.27464 6,575 261 266 -768
2017-11-12 19:17:39 GMT -33.96213 151.27910 6,625 261 266 -576
2017-11-12 19:17:36 GMT -33.96149 151.28503 6,650 261 267 -704
2017-11-12 19:17:32 GMT -33.96062 151.29082 6,700 261 267 -768
2017-11-12 19:17:30 GMT -33.96053 151.29082 6,700 261 267 -768
2017-11-12 19:17:26 GMT -33.95963 151.29826 6,775 262 268 -768
2017-11-12 19:17:24 GMT -33.95916 151.30119 6,800 263 267 -832
2017-11-12 19:17:22 GMT -33.95855 151.30714 6,850 265 268 -832
2017-11-12 19:17:20 GMT -33.95847 151.30859 6,850 265 268 -768
2017-11-12 19:17:16 GMT -33.95805 151.31453 6,900 269 269 -704
2017-11-12 19:17:13 GMT -33.95801 151.31738 6,925 271 270 -640
2017-11-12 19:17:11 GMT -33.95810 151.32059 6,950 275 270 -576
2017-11-12 19:17:09 GMT -33.95824 151.32361 6,975 276 270 -640
2017-11-12 19:17:06 GMT -33.95860 151.32809 7,025 276 270 -768
2017-11-12 19:17:04 GMT -33.95888 151.33112 7,050 277 270 -768
2017-11-12 19:17:00 GMT -33.95947 151.33858 7,100 277 270 -768
2017-11-12 19:16:58 GMT -33.95979 151.34155 7,125 277 270 -832
2017-11-12 19:16:54 GMT -33.96039 151.34760 7,175 278 270 -832
2017-11-12 19:16:51 GMT -33.96080 151.35046 7,200 278 270 -896
2017-11-12 19:16:49 GMT -33.96121 151.35498 7,250 278 270 -1024
2017-11-12 19:16:46 GMT -33.96158 151.35802 7,275 278 270 -960
2017-11-12 19:16:43 GMT -33.96223 151.36407 7,350 278 270 -704
2017-11-12 19:16:40 GMT -33.96258 151.36852 7,375 277 271 -512
2017-11-12 19:16:36 GMT -33.96318 151.37439 7,400 277 271 -256
2017-11-12 19:16:34 GMT -33.96350 151.37743 7,400 277 271 -256
2017-11-12 19:16:32 GMT -33.96395 151.38199 7,425 277 271 -768
2017-11-12 19:16:29 GMT -33.96428 151.38496 7,450 278 268 -1280
2017-11-12 19:16:27 GMT -33.96461 151.38782 7,500 278 268 -1344
2017-11-12 19:16:25 GMT -33.96483 151.38930 7,525 278 267 -1408
2017-11-12 19:16:23 GMT -33.96521 151.39383 7,600 278 267 -1408
2017-11-12 19:16:20 GMT -33.96579 151.39822 7,675 278 267 -1408
2017-11-12 19:16:15 GMT -33.96643 151.40410 7,750 278 267 -1408
2017-11-12 19:16:13 GMT -33.96689 151.40865 7,825 278 267 -1472
2017-11-12 19:16:11 GMT -33.96703 151.41003 7,850 278 267 -1472
2017-11-12 19:16:09 GMT -33.96721 151.41151 7,875 278 267 -1472
2017-11-12 19:16:06 GMT -33.96782 151.41747 7,975 278 267 -1408
2017-11-12 19:16:03 GMT -33.96840 151.42188 8,050 278 267 -1472
2017-11-12 19:16:00 GMT -33.96880 151.42639 8,125 278 267 -1472
2017-11-12 19:15:58 GMT -33.96903 151.42931 8,150 278 267 -1408
2017-11-12 19:15:55 GMT -33.96963 151.43364 8,225 278 267 -1408
2017-11-12 19:15:51 GMT -33.97028 151.44115 8,325 278 267 -1344
2017-11-12 19:15:49 GMT -33.97061 151.44402 8,375 278 267 -1344
2017-11-12 19:15:47 GMT -33.97098 151.44705 8,425 278 267 -1408
2017-11-12 19:15:44 GMT -33.97138 151.45152 8,500 278 267 -1536
2017-11-12 19:15:41 GMT -33.97187 151.45592 8,575 278 267 -1472
2017-11-12 19:15:38 GMT -33.97234 151.46033 8,650 278 268 -1088
2017-11-12 19:15:36 GMT -33.97247 151.46175 8,650 278 268 -832
2017-11-12 19:15:32 GMT -33.97330 151.46935 8,700 278 271 -64
2017-11-12 19:15:30 GMT -33.97362 151.47232 8,700 278 272 0
2017-11-12 19:15:27 GMT -33.97410 151.47681 8,700 278 272 0
2017-11-12 19:15:24 GMT -33.97435 151.47826 8,700 278 272 0
2017-11-12 19:15:21 GMT -33.97490 151.48425 8,700 278 272 0
2017-11-12 19:15:19 GMT -33.97536 151.48875 8,700 278 272 0
2017-11-12 19:15:13 GMT -33.97606 151.49483 8,700 277 271 -64
2017-11-12 19:15:10 GMT -33.97666 151.50089 8,700 278 270 -64
2017-11-12 19:15:07 GMT -33.97710 151.50539 8,725 278 270 0
2017-11-12 19:15:04 GMT -33.97764 151.50983 8,725 277 271 0
2017-11-12 19:15:02 GMT -33.97778 151.51128 8,725 277 271 0
2017-11-12 19:14:59 GMT -33.97847 151.51738 8,725 278 272 0
2017-11-12 19:14:56 GMT -33.97890 151.52177 8,725 278 272 64
2017-11-12 19:14:53 GMT -33.97946 151.52785 8,700 278 273 64
2017-11-12 19:14:50 GMT -33.97966 151.52933 8,700 278 273 64
2017-11-12 19:14:47 GMT -33.98030 151.53539 8,700 277 272 64
2017-11-12 19:14:45 GMT -33.98067 151.53992 8,700 277 272 64
2017-11-12 19:14:42 GMT -33.98117 151.54440 8,700 277 271 0
2017-11-12 19:14:39 GMT -33.98132 151.54593 8,700 277 271 0
2017-11-12 19:14:37 GMT -33.98192 151.55188 8,700 277 271 64
2017-11-12 19:14:34 GMT -33.98241 151.55640 8,700 278 270 64
2017-11-12 19:14:28 GMT -33.98305 151.56245 8,700 278 270 -128
2017-11-12 19:14:25 GMT -33.98378 151.56984 8,725 277 271 -512
2017-11-12 19:14:23 GMT -33.98411 151.57288 8,725 277 271 -576
2017-11-12 19:14:18 GMT -33.98486 151.57893 8,775 277 272 -704
2017-11-12 19:14:13 GMT -33.98561 151.58640 8,850 277 272 -1152
2017-11-12 19:14:12 GMT -33.98589 151.58942 8,875 277 272 -1280
2017-11-12 19:14:11 GMT -33.98589 151.58942 8,875 277 272 -1280
2017-11-12 19:14:07 GMT -33.98658 151.59554 8,975 277 273 -1344
2017-11-12 19:14:02 GMT -33.98740 151.60466 9,075 277 276 -1344
2017-11-12 19:14:00 GMT -33.98770 151.60619 9,125 278 278 -1344
2017-11-12 19:13:56 GMT -33.98840 151.61391 9,225 277 280 -1408
2017-11-12 19:13:51 GMT -33.98904 151.62013 9,325 277 282 -1408
2017-11-12 19:13:49 GMT -33.98936 151.62321 9,375 277 283 -1472
2017-11-12 19:13:47 GMT -33.98979 151.62791 9,425 278 284 -1408
2017-11-12 19:13:45 GMT -33.99016 151.63101 9,475 278 285 -1216
2017-11-12 19:13:40 GMT -33.99086 151.63742 9,575 278 287 -1216
2017-11-12 19:13:37 GMT -33.99119 151.64056 9,600 278 288 -1408
2017-11-12 19:13:32 GMT -33.99206 151.64854 9,725 278 290 -1408
2017-11-12 19:13:29 GMT -33.99277 151.65652 9,825 278 291 -1344
2017-11-12 19:13:26 GMT -33.99303 151.65823 9,850 278 292 -1408
2017-11-12 19:13:24 GMT -33.99356 151.66306 9,925 278 294 -1344
2017-11-12 19:13:22 GMT -33.99403 151.66789 9,975 278 294 -1344
2017-11-12 19:13:19 GMT -33.99463 151.67278 10,050 278 296 -1472
2017-11-12 19:13:15 GMT -33.99524 151.67937 10,150 278 297 -1536
2017-11-12 19:13:11 GMT -33.99594 151.68600 10,250 277 298 -1728
2017-11-12 19:13:07 GMT -33.99674 151.69429 10,400 277 298 -2048
2017-11-12 19:13:04 GMT -33.99696 151.69585 10,475 277 298 -2112
2017-11-12 19:13:00 GMT -33.99774 151.70421 10,625 277 297 -2112
2017-11-12 19:12:57 GMT -33.99822 151.70906 10,725 277 296 -2048
2017-11-12 19:12:54 GMT -33.99870 151.71391 10,825 277 295 -2048
2017-11-12 19:12:49 GMT -33.99952 151.72215 11,000 277 294 -1984
2017-11-12 19:12:46 GMT -34.00008 151.72702 11,100 277 293 -1920
2017-11-12 19:12:43 GMT -34.00054 151.73178 11,175 277 292 -1792
2017-11-12 19:12:40 GMT -34.00087 151.73505 11,250 277 292 -1728
2017-11-12 19:12:37 GMT -34.00145 151.73991 11,325 277 292 -1408
2017-11-12 19:12:35 GMT -34.00180 151.74483 11,375 277 293 -1344
2017-11-12 19:12:32 GMT -34.00227 151.74960 11,450 277 293 -1344
2017-11-12 19:12:30 GMT -34.00255 151.75130 11,475 277 293 -1344
2017-11-12 19:12:26 GMT -34.00324 151.75781 11,575 277 294 -1472
2017-11-12 19:12:23 GMT -34.00376 151.76434 11,650 277 294 -1472
2017-11-12 19:12:21 GMT -34.00408 151.76749 11,700 277 294 -1408
2017-11-12 19:12:18 GMT -34.00446 151.77074 11,750 277 295 -1408
2017-11-12 19:12:15 GMT -34.00511 151.77727 11,850 277 295 -1408
2017-11-12 19:12:12 GMT -34.00594 151.78554 11,950 277 295 -1472
2017-11-12 19:12:10 GMT -34.00594 151.78554 11,950 277 295 -1472
2017-11-12 19:12:04 GMT -34.00685 151.79529 12,100 277 295 -1472
2017-11-12 19:12:01 GMT -34.00731 151.79866 12,150 277 295 -1408
2017-11-12 19:11:58 GMT -34.00771 151.80347 12,225 277 296 -1472
2017-11-12 19:11:52 GMT -34.00864 151.81337 12,375 277 296 -1472
2017-11-12 19:11:50 GMT -34.00906 151.81664 12,425 277 297 -1472
2017-11-12 19:11:48 GMT -34.00955 151.82153 12,500 277 297 -1472
2017-11-12 19:11:46 GMT -34.00955 151.82153 12,500 277 297 -1472
2017-11-12 19:11:44 GMT -34.01010 151.82825 12,575 277 298 -1408
2017-11-12 19:11:41 GMT -34.01056 151.83145 12,625 277 298 -1408
2017-11-12 19:11:39 GMT -34.01093 151.83481 12,675 277 298 -1408
2017-11-12 19:11:36 GMT -34.01147 151.84137 12,750 277 299 -1472
2017-11-12 19:11:34 GMT -34.01172 151.84312 12,800 277 299 -1472
2017-11-12 19:11:30 GMT -34.01241 151.84978 12,900 277 300 -1472
2017-11-12 19:11:28 GMT -34.01280 151.85460 12,950 277 300 -1472
2017-11-12 19:11:23 GMT -34.01362 151.86304 13,075 277 301 -1472
2017-11-12 19:11:19 GMT -34.01432 151.86974 13,175 277 301 -1472
2017-11-12 19:11:17 GMT -34.01463 151.87135 13,200 277 301 -1536
2017-11-12 19:11:12 GMT -34.01523 151.87798 13,300 277 301 -1472
2017-11-12 19:11:09 GMT -34.01582 151.88470 13,375 278 302 -1408
2017-11-12 19:11:06 GMT -34.01656 151.89137 13,475 278 302 -1472
2017-11-12 19:11:03 GMT -34.01701 151.89473 13,550 278 302 -1408
2017-11-12 19:11:00 GMT -34.01761 151.90134 13,625 278 302 -1472
2017-11-12 19:10:58 GMT -34.01777 151.90311 13,650 278 303 -1472
2017-11-12 19:10:54 GMT -34.01861 151.90985 13,750 278 303 -1472
2017-11-12 19:10:52 GMT -34.01893 151.91312 13,800 278 303 -1472
2017-11-12 19:10:50 GMT -34.01939 151.91811 13,850 278 304 -1472
2017-11-12 19:10:46 GMT -34.01990 151.92165 13,925 278 304 -1472
2017-11-12 19:10:44 GMT -34.02045 151.92657 14,000 278 305 -1472
2017-11-12 19:10:41 GMT -34.02103 151.93343 14,075 278 305 -1472
2017-11-12 19:10:39 GMT -34.02149 151.93668 14,125 278 305 -1472
2017-11-12 19:10:34 GMT -34.02237 151.94524 14,250 278 305 -1472
2017-11-12 19:10:32 GMT -34.02266 151.94693 14,300 278 306 -1472
2017-11-12 19:10:30 GMT -34.02315 151.95190 14,350 278 306 -1472
2017-11-12 19:10:26 GMT -34.02373 151.95700 14,425 278 306 -1472
2017-11-12 19:10:24 GMT -34.02405 151.96043 14,475 278 306 -1536
2017-11-12 19:10:21 GMT -34.02480 151.96718 14,575 278 307 -1472
2017-11-12 19:10:19 GMT -34.02512 151.96889 14,625 278 307 -1472
2017-11-12 19:10:16 GMT -34.02576 151.97572 14,700 278 307 -1536
2017-11-12 19:10:13 GMT -34.02605 151.97743 14,750 278 307 -1536
2017-11-12 19:10:10 GMT -34.02675 151.98422 14,825 278 308 -1472
2017-11-12 19:10:08 GMT -34.02718 151.98940 14,900 278 308 -1472
2017-11-12 19:10:04 GMT -34.02778 151.99442 14,975 277 308 -1536
2017-11-12 19:10:01 GMT -34.02838 152.00124 15,075 277 309 -1536
2017-11-12 19:09:59 GMT -34.02875 152.00471 15,125 277 308 -1472
2017-11-12 19:09:56 GMT -34.02913 152.00815 15,175 277 309 -1536
2017-11-12 19:09:53 GMT -34.02960 152.01328 15,250 277 309 -1536
2017-11-12 19:09:51 GMT -34.02988 152.01669 15,300 277 309 -1536
2017-11-12 19:09:48 GMT -34.03047 152.02354 15,400 277 309 -1600
2017-11-12 19:09:46 GMT -34.03075 152.02702 15,450 277 310 -1472
2017-11-12 19:09:42 GMT -34.03131 152.03214 15,525 276 311 -1408
2017-11-12 19:09:40 GMT -34.03150 152.03574 15,575 275 311 -1472
2017-11-12 19:09:38 GMT -34.03184 152.04086 15,625 274 310 -1536
2017-11-12 19:09:34 GMT -34.03197 152.04610 15,725 270 310 -1728
2017-11-12 19:09:31 GMT -34.03178 152.05296 15,825 267 309 -1664
2017-11-12 19:09:27 GMT -34.03125 152.05812 15,925 263 309 -1088
2017-11-12 19:09:24 GMT -34.03093 152.06149 15,950 262 310 -1088
2017-11-12 19:09:22 GMT -34.03043 152.06491 15,975 259 311 -896
2017-11-12 19:09:20 GMT -34.02933 152.07175 16,025 256 313 -512
2017-11-12 19:09:16 GMT -34.02777 152.07841 16,050 253 315 -448
2017-11-12 19:09:14 GMT -34.02736 152.08008 16,075 252 315 -448
2017-11-12 19:09:12 GMT -34.02594 152.08514 16,100 249 318 -640
2017-11-12 19:09:08 GMT -34.02387 152.08998 16,125 245 320 -640
2017-11-12 19:09:05 GMT -34.02159 152.09639 16,150 242 323 -512
2017-11-12 19:09:03 GMT -34.02049 152.09798 16,175 242 323 -512
2017-11-12 19:09:00 GMT -34.01875 152.10278 16,200 242 325 -576
2017-11-12 19:08:57 GMT -34.01637 152.10751 16,225 242 328 -704
2017-11-12 19:08:55 GMT -34.01567 152.10921 16,250 242 329 -768
2017-11-12 19:08:52 GMT -34.01246 152.11562 16,300 242 330 -896
2017-11-12 19:08:50 GMT -34.01065 152.12057 16,325 242 332 -1024
2017-11-12 19:08:46 GMT -34.00786 152.12695 16,400 242 334 -1280
2017-11-12 19:08:44 GMT -34.00715 152.12872 16,425 242 334 -1472
2017-11-12 19:08:42 GMT -34.00529 152.13193 16,475 242 335 -1664
2017-11-12 19:08:40 GMT -34.00390 152.13518 16,550 242 335 -1856
2017-11-12 19:08:38 GMT -34.00278 152.13683 16,575 242 335 -1856
2017-11-12 19:08:33 GMT -33.99893 152.14668 16,750 242 336 -1856
2017-11-12 19:08:30 GMT -33.99568 152.15318 16,875 242 336 -1856
2017-11-12 19:08:28 GMT -33.99459 152.15482 16,925 242 336 -1856
2017-11-12 19:08:24 GMT -33.99129 152.16306 17,050 242 336 -1856
2017-11-12 19:08:22 GMT -33.99054 152.16476 17,075 242 336 -1856
2017-11-12 19:08:20 GMT -33.98827 152.16966 17,175 242 337 -1856
2017-11-12 19:08:17 GMT -33.98630 152.17297 17,250 242 337 -1920
2017-11-12 19:08:11 GMT -33.98231 152.18291 17,425 242 337 -1728
2017-11-12 19:08:09 GMT -33.97997 152.18777 17,500 242 337 -1408
2017-11-12 19:08:06 GMT -33.97765 152.19276 17,575 242 339 -1728
2017-11-12 19:08:01 GMT -33.97440 152.19939 17,700 242 338 -1920
2017-11-12 19:07:59 GMT -33.97364 152.20099 17,750 242 338 -1920
2017-11-12 19:07:56 GMT -33.97066 152.20769 17,875 242 338 -1920
2017-11-12 19:07:54 GMT -33.96917 152.21106 17,925 242 339 -1920
2017-11-12 19:07:48 GMT -33.96489 152.22090 18,100 242 340 -1920
2017-11-12 19:07:46 GMT -33.96268 152.22589 18,200 242 340 -1920
2017-11-12 19:07:44 GMT -33.96112 152.22925 18,250 242 340 -1920
2017-11-12 19:07:38 GMT -33.95659 152.23749 18,450 242 341 -1920
2017-11-12 19:07:36 GMT -33.95534 152.24088 18,500 242 341 -1920
2017-11-12 19:07:34 GMT -33.95348 152.24585 18,575 242 341 -1920
2017-11-12 19:07:32 GMT -33.95236 152.24745 18,625 242 341 -1920
2017-11-12 19:07:27 GMT -33.94817 152.25587 18,800 242 341 -1920
2017-11-12 19:07:23 GMT -33.94501 152.26416 18,925 242 341 -1920
2017-11-12 19:07:21 GMT -33.94382 152.26579 18,975 242 341 -1920
2017-11-12 19:07:15 GMT -33.93965 152.27583 19,125 242 342 -1920
2017-11-12 19:07:12 GMT -33.93649 152.28256 19,275 242 342 -1920
2017-11-12 19:07:09 GMT -33.93537 152.28424 19,325 242 342 -1920
2017-11-12 19:07:05 GMT -33.93113 152.29431 19,500 242 342 -1920
2017-11-12 19:07:01 GMT -33.92857 152.29921 19,600 241 344 -1920
2017-11-12 19:06:58 GMT -33.92657 152.30421 19,675 242 343 -1920
2017-11-12 19:06:54 GMT -33.92258 152.31265 19,850 241 344 -1984
2017-11-12 19:06:50 GMT -33.91937 152.31940 19,975 241 344 -1920
2017-11-12 19:06:48 GMT -33.91819 152.32098 20,025 242 345 -1920
2017-11-12 19:06:41 GMT -33.91292 152.33278 20,250 242 345 -1920
2017-11-12 19:06:37 GMT -33.90967 152.33945 20,375 242 345 -1920
2017-11-12 19:06:30 GMT -33.90441 152.35126 20,600 241 346 -1856
2017-11-12 19:06:27 GMT -33.90157 152.35806 20,700 241 346 -1984
2017-11-12 19:06:20 GMT -33.89625 152.36995 20,925 242 347 -1920
2017-11-12 19:06:18 GMT -33.89589 152.36989 20,950 242 347 -1920
2017-11-12 19:06:15 GMT -33.89282 152.37672 21,075 242 347 -1920
2017-11-12 19:06:09 GMT -33.88843 152.38683 21,250 242 348 -2048
2017-11-12 19:06:08 GMT -33.88766 152.38850 21,275 242 348 -2048
2017-11-12 19:06:03 GMT -33.88430 152.39525 21,425 242 348 -1920
2017-11-12 19:06:01 GMT -33.88151 152.40218 21,550 242 348 -1984
2017-11-12 19:05:58 GMT -33.87909 152.40717 21,650 242 348 -2112
2017-11-12 19:05:56 GMT -33.87825 152.40892 21,675 242 348 -1920
2017-11-12 19:05:53 GMT -33.87561 152.41400 21,800 242 348 -1984
2017-11-12 19:05:51 GMT -33.87410 152.41737 21,850 242 348 -1984
2017-11-12 19:05:46 GMT -33.86992 152.42586 22,025 242 349 -1792
2017-11-12 19:05:43 GMT -33.86740 152.43266 22,125 242 349 -1728
2017-11-12 19:05:41 GMT -33.86591 152.43440 22,175 242 350 -1856
2017-11-12 19:05:35 GMT -33.86196 152.44292 22,325 242 350 -1984
2017-11-12 19:05:35 GMT -33.86160 152.44461 22,350 242 350 -2048
2017-11-12 19:05:32 GMT -33.85840 152.45151 22,475 242 351 -1920
2017-11-12 19:05:30 GMT -33.85726 152.45316 22,525 242 351 -1920
2017-11-12 19:05:24 GMT -33.85332 152.46182 22,700 241 352 -1984
2017-11-12 19:05:21 GMT -33.84990 152.47026 22,825 241 352 -1984
2017-11-12 19:05:19 GMT -33.84818 152.47375 22,900 241 352 -1984
2017-11-12 19:05:13 GMT -33.84439 152.48239 23,050 242 353 -1920
2017-11-12 19:05:09 GMT -33.84017 152.49092 23,225 242 354 -1984
2017-11-12 19:05:07 GMT -33.83882 152.49448 23,275 242 354 -1984
2017-11-12 19:05:02 GMT -33.83524 152.50122 23,425 242 354 -1984
2017-11-12 19:04:57 GMT -33.83125 152.50986 23,600 241 355 -1856
2017-11-12 19:04:55 GMT -33.83049 152.51164 23,625 241 355 -1856
2017-11-12 19:04:51 GMT -33.82617 152.52032 23,775 241 355 -1984
2017-11-12 19:04:46 GMT -33.82191 152.53065 23,950 241 356 -1920
2017-11-12 19:04:40 GMT -33.81706 152.54118 24,150 241 356 -1920
2017-11-12 19:04:35 GMT -33.81308 152.54987 24,300 241 358 -1856
2017-11-12 19:04:29 GMT -33.80855 152.55846 24,475 241 357 -1920
2017-11-12 19:04:24 GMT -33.80425 152.56888 24,650 241 356 -1920
2017-11-12 19:04:18 GMT -33.79935 152.57930 24,850 242 356 -1920
2017-11-12 19:04:12 GMT -33.79478 152.58801 25,025 242 357 -1856
2017-11-12 19:04:07 GMT -33.79041 152.59837 25,200 241 358 -1856
2017-11-12 19:04:02 GMT -33.78667 152.60706 25,325 241 358 -1920
2017-11-12 19:04:00 GMT -33.78625 152.60716 25,350 242 358 -1856
2017-11-12 19:03:54 GMT -33.78113 152.61765 25,550 242 358 -1856
2017-11-12 19:03:51 GMT -33.77784 152.62625 25,675 242 357 -1856
2017-11-12 19:03:49 GMT -33.77616 152.62981 25,725 242 357 -1856
2017-11-12 19:03:44 GMT -33.77239 152.63678 25,875 241 356 -1856
2017-11-12 19:03:40 GMT -33.76797 152.64702 26,050 241 355 -1856
2017-11-12 19:03:40 GMT -33.76881 152.64539 26,025 241 355 -1856
2017-11-12 19:03:38 GMT -33.76689 152.64886 26,100 241 355 -1856
2017-11-12 19:03:33 GMT -33.76364 152.65570 26,225 241 355 -1920
2017-11-12 19:03:28 GMT -33.75911 152.66612 26,400 241 355 -1984
2017-11-12 19:03:26 GMT -33.75755 152.66943 26,450 241 355 -1792
2017-11-12 19:03:22 GMT -33.75475 152.67461 26,550 241 355 -1472
2017-11-12 19:03:17 GMT -33.75073 152.68333 26,675 241 357 -1664
2017-11-12 19:03:14 GMT -33.74842 152.68851 26,750 241 357 -1792
2017-11-12 19:03:10 GMT -33.74511 152.69537 26,875 241 358 -2048
2017-11-12 19:03:05 GMT -33.74176 152.70241 27,025 241 358 -1856
2017-11-12 19:03:03 GMT -33.73947 152.70755 27,100 241 358 -1792
2017-11-12 19:03:00 GMT -33.73608 152.71455 27,225 241 359 -1792
2017-11-12 19:02:55 GMT -33.73274 152.72156 27,350 241 359 -1792
2017-11-12 19:02:52 GMT -33.73026 152.72678 27,425 241 360 -1792
2017-11-12 19:02:48 GMT -33.72665 152.73552 27,575 241 360 -1856
2017-11-12 19:02:43 GMT -33.72340 152.74258 27,700 241 362 -1856
2017-11-12 19:02:40 GMT -33.72091 152.74773 27,775 241 362 -1856
2017-11-12 19:02:37 GMT -33.71760 152.75488 27,900 241 363 -1792
2017-11-12 19:02:33 GMT -33.71462 152.76173 28,000 241 363 -1792
2017-11-12 19:02:33 GMT -33.71462 152.76173 28,000 241 364 -1792
2017-11-12 19:02:29 GMT -33.71164 152.76720 28,125 241 363 -1792
2017-11-12 19:02:26 GMT -33.70853 152.77409 28,225 241 365 -1856
2017-11-12 19:02:21 GMT -33.70509 152.78127 28,350 241 365 -1792
2017-11-12 19:02:19 GMT -33.70303 152.78658 28,425 241 366 -1856
2017-11-12 19:02:14 GMT -33.69896 152.79376 28,575 241 367 -1856
2017-11-12 19:02:11 GMT -33.69699 152.79909 28,650 241 367 -1856
2017-11-12 19:02:09 GMT -33.69609 152.80083 28,675 241 368 -1792
2017-11-12 19:02:06 GMT -33.69351 152.80609 28,775 241 368 -1792
2017-11-12 19:02:04 GMT -33.69074 152.81158 28,875 241 368 -1792
2017-11-12 19:02:01 GMT -33.68795 152.81857 28,975 241 369 -1792
2017-11-12 19:01:59 GMT -33.68669 152.82037 29,025 241 369 -1792
2017-11-12 19:01:56 GMT -33.68418 152.82578 29,100 241 369 -1728
2017-11-12 19:01:53 GMT -33.68110 152.83304 29,200 241 371 -1728
2017-11-12 19:01:50 GMT -33.67803 152.84026 29,325 241 371 -1984
2017-11-12 19:01:48 GMT -33.67708 152.84190 29,375 241 372 -2048
2017-11-12 19:01:45 GMT -33.67484 152.84561 29,450 241 371 -2496
2017-11-12 19:01:41 GMT -33.67100 152.85455 29,650 242 371 -2688
2017-11-12 19:01:37 GMT -33.66829 152.86008 29,775 241 372 -2432
2017-11-12 19:01:34 GMT -33.66540 152.86719 29,925 241 372 -2432
2017-11-12 19:01:30 GMT -33.66244 152.87270 30,075 241 374 -2432
2017-11-12 19:01:26 GMT -33.65859 152.88176 30,250 241 375 -2432
2017-11-12 19:01:22 GMT -33.65536 152.88724 30,400 241 376 -2432
2017-11-12 19:01:20 GMT -33.65438 152.89078 30,450 241 376 -2496
2017-11-12 19:01:18 GMT -33.65224 152.89450 30,550 241 377 -2560
2017-11-12 19:01:15 GMT -33.64921 152.90189 30,700 241 377 -2560
2017-11-12 19:01:13 GMT -33.64664 152.90727 30,825 241 378 -2560
2017-11-12 19:01:11 GMT -33.64577 152.90909 30,875 241 378 -2560
2017-11-12 19:01:08 GMT -33.64288 152.91455 31,025 242 379 -2560
2017-11-12 19:01:06 GMT -33.64169 152.91824 31,075 242 379 -2560
2017-11-12 19:01:04 GMT -33.64004 152.92014 31,150 241 380 -2560
2017-11-12 19:01:01 GMT -33.63730 152.92746 31,300 241 381 -2624
2017-11-12 19:00:59 GMT -33.63643 152.92941 31,325 241 381 -2560
2017-11-12 19:00:57 GMT -33.63362 152.93501 31,475 241 382 -2560
2017-11-12 19:00:55 GMT -33.63218 152.93867 31,550 241 382 -2560
2017-11-12 19:00:53 GMT -33.63027 152.94238 31,650 241 382 -2624
2017-11-12 19:00:50 GMT -33.62723 152.94785 31,800 241 383 -2624
2017-11-12 19:00:48 GMT -33.62636 152.94983 31,850 241 383 -2560
2017-11-12 19:00:46 GMT -33.62412 152.95525 31,950 241 384 -2496
2017-11-12 19:00:44 GMT -33.62282 152.95715 32,000 241 385 -2432
2017-11-12 19:00:40 GMT -33.61890 152.96651 32,200 241 386 -2368
2017-11-12 19:00:38 GMT -33.61729 152.97021 32,275 241 386 -2304
2017-11-12 19:00:35 GMT -33.61598 152.97203 32,325 241 387 -2368
2017-11-12 19:00:33 GMT -33.61368 152.97768 32,425 241 388 -2368
2017-11-12 19:00:31 GMT -33.61100 152.98335 32,550 241 389 -2432
2017-11-12 19:00:29 GMT -33.60947 152.98524 32,625 241 389 -2432
2017-11-12 19:00:27 GMT -33.60736 152.99080 32,700 241 390 -2432
2017-11-12 19:00:24 GMT -33.60635 152.99275 32,750 241 390 -2432
2017-11-12 19:00:22 GMT -33.60315 153.00037 32,900 241 399 -2304
2017-11-12 19:00:19 GMT -33.60063 153.00424 33,000 241 393 -2304
2017-11-12 19:00:17 GMT -33.59801 153.00980 33,100 241 394 -2368
2017-11-12 19:00:15 GMT -33.59711 153.01169 33,150 241 394 -2432
2017-11-12 19:00:12 GMT -33.59428 153.01758 33,275 241 395 -2560
2017-11-12 19:00:08 GMT -33.59079 153.02519 33,450 241 397 -2432
2017-11-12 19:00:04 GMT -33.58725 153.03291 33,600 241 398 -2368
2017-11-12 19:00:01 GMT -33.58434 153.03865 33,725 241 399 -2304
2017-11-12 18:59:57 GMT -33.58041 153.04819 33,900 241 400 -2176
2017-11-12 18:59:54 GMT -33.57747 153.05402 34,000 241 402 -2048
2017-11-12 18:59:51 GMT -33.57655 153.05603 34,050 241 402 -1984
2017-11-12 18:59:49 GMT -33.57464 153.05992 34,100 241 403 -1920
2017-11-12 18:59:46 GMT -33.57046 153.06976 34,250 241 406 -1728
2017-11-12 18:59:42 GMT -33.56710 153.07555 34,350 241 408 -1536
2017-11-12 18:59:40 GMT -33.56612 153.07755 34,375 241 410 -1472
2017-11-12 18:59:38 GMT -33.56356 153.08337 34,450 241 411 -1600
2017-11-12 18:59:35 GMT -33.56016 153.09145 34,550 241 414 -1600
2017-11-12 18:59:31 GMT -33.55625 153.09952 34,650 241 416 -1536
2017-11-12 18:59:28 GMT -33.55371 153.10558 34,725 241 418 -1600
2017-11-12 18:59:25 GMT -33.55225 153.10747 34,775 241 420 -1664
2017-11-12 18:59:23 GMT -33.54941 153.11377 34,850 241 423 -1792
2017-11-12 18:59:20 GMT -33.54561 153.12184 34,950 241 425 -1152
2017-11-12 18:59:18 GMT -33.54410 153.12610 34,975 241 427 -1024
2017-11-12 18:59:16 GMT -33.54280 153.12807 35,000 241 429 -1152
2017-11-12 18:59:12 GMT -33.53884 153.13641 35,100 241 431 -1920
2017-11-12 18:59:09 GMT -33.53539 153.14465 35,200 241 433 -2304
2017-11-12 18:59:07 GMT -33.53389 153.14677 35,275 241 433 -2560
2017-11-12 18:59:05 GMT -33.53197 153.15096 35,350 241 434 -2304
2017-11-12 18:59:03 GMT -33.52991 153.15524 35,425 241 435 -1664
2017-11-12 18:59:01 GMT -33.52762 153.15936 35,475 241 435 -1408
2017-11-12 18:58:58 GMT -33.52419 153.16792 35,550 241 438 -1024
2017-11-12 18:58:56 GMT -33.52320 153.16998 35,575 241 439 -960
2017-11-12 18:58:54 GMT -33.52068 153.17413 35,625 241 440 -960
2017-11-12 18:58:49 GMT -33.51599 153.18491 35,700 241 442 -832
2017-11-12 18:58:46 GMT -33.51215 153.19347 35,775 241 446 -1472
2017-11-12 18:58:42 GMT -33.50825 153.20204 35,875 241 447 -2176
2017-11-12 18:58:39 GMT -33.50518 153.20856 35,975 241 447 -2432
2017-11-12 18:58:37 GMT -33.50318 153.21275 36,050 241 447 -2496
2017-11-12 18:58:34 GMT -33.49997 153.21918 36,175 241 448 -2496
2017-11-12 18:58:31 GMT -33.49703 153.22581 36,300 241 447 -2624
2017-11-12 18:58:28 GMT -33.49419 153.23013 36,425 241 447 -2624
2017-11-12 18:58:26 GMT -33.49210 153.23659 36,500 241 447 -2624
2017-11-12 18:58:23 GMT -33.48990 153.24088 36,600 241 447 -2688
2017-11-12 18:58:21 GMT -33.48670 153.24745 36,725 241 447 -2688
2017-11-12 18:58:17 GMT -33.48317 153.25372 36,875 241 446 -2624
2017-11-12 18:58:15 GMT -33.48056 153.26035 37,000 241 446 -2624
2017-11-12 18:58:13 GMT -33.47946 153.26234 37,050 241 446 -2688
2017-11-12 18:58:11 GMT -33.47846 153.26471 37,100 241 446 -2688
2017-11-12 18:58:09 GMT -33.47418 153.27312 37,275 241 446 -2624
2017-11-12 18:58:06 GMT -33.47154 153.27971 37,375 241 446 -2432
2017-11-12 18:58:01 GMT -33.46631 153.29039 37,575 241 445 -2176
2017-11-12 18:57:59 GMT -33.46440 153.29465 37,625 241 446 -1920
2017-11-12 18:57:55 GMT -33.46044 153.30339 37,750 241 446 -1536
2017-11-12 18:57:53 GMT -33.45816 153.30754 37,800 241 445 -1344
2017-11-12 18:57:50 GMT -33.45625 153.31186 37,850 241 445 -1088
2017-11-12 18:57:46 GMT -33.45131 153.32268 37,925 241 444 -832
2017-11-12 18:57:43 GMT -33.44838 153.32690 37,950 241 444 -704
2017-11-12 18:57:40 GMT -33.44583 153.33337 37,975 241 443 -448
2017-11-12 18:57:38 GMT -33.44485 153.33540 37,975 241 443 -384
2017-11-12 18:57:35 GMT -33.44006 153.34616 38,000 241 443 0
2017-11-12 18:57:33 GMT -33.43801 153.35025 38,000 241 442 0
2017-11-12 18:57:30 GMT -33.43474 153.35678 38,000 241 442 0
2017-11-12 18:57:28 GMT -33.43363 153.35889 38,000 241 442 0
2017-11-12 18:57:24 GMT -33.42958 153.36740 38,000 241 442 0
2017-11-12 18:57:20 GMT -33.42421 153.37804 38,000 241 442 64
2017-11-12 18:57:18 GMT -33.42311 153.38017 38,000 241 442 64
2017-11-12 18:57:17 GMT -33.42224 153.38226 38,000 241 442 64
2017-11-12 18:57:16 GMT -33.42265 153.38222 38,000 241 442 64
2017-11-12 18:57:10 GMT -33.41510 153.39711 38,000 241 442 64
2017-11-12 18:57:07 GMT -33.41258 153.40364 38,000 241 442 0
2017-11-12 18:57:05 GMT -33.41115 153.40581 38,000 241 442 0
2017-11-12 18:57:01 GMT -33.40604 153.41638 38,000 241 442 0
2017-11-12 18:56:59 GMT -33.40398 153.42067 38,000 241 442 0
2017-11-12 18:56:56 GMT -33.40045 153.42918 38,000 241 442 0
2017-11-12 18:56:54 GMT -33.39990 153.42912 38,000 241 442 0
2017-11-12 18:56:50 GMT -33.39495 153.43965 38,000 241 442 0
2017-11-12 18:56:48 GMT -33.39253 153.44604 38,000 241 442 0
2017-11-12 18:56:46 GMT -33.39047 153.45044 38,000 241 442 0
2017-11-12 18:56:43 GMT -33.38885 153.45248 38,000 241 442 0
2017-11-12 18:56:40 GMT -33.38411 153.46307 38,000 241 442 0
2017-11-12 18:56:38 GMT -33.38370 153.46318 38,000 241 442 0
2017-11-12 18:56:36 GMT -33.38103 153.46959 38,000 241 442 0
2017-11-12 18:56:34 GMT -33.37865 153.47379 38,000 241 442 0
2017-11-12 18:56:32 GMT -33.37754 153.47816 38,000 241 442 0
2017-11-12 18:56:27 GMT -33.37302 153.48663 38,000 241 442 0
2017-11-12 18:56:25 GMT -33.36978 153.49301 38,000 241 442 0
2017-11-12 18:56:23 GMT -33.36800 153.49724 38,000 241 442 0
2017-11-12 18:56:21 GMT -33.36646 153.49940 38,000 241 442 0
2017-11-12 18:56:17 GMT -33.36140 153.50993 38,000 241 442 0
2017-11-12 18:56:14 GMT -33.35882 153.51645 38,000 241 442 0
2017-11-12 18:56:11 GMT -33.35663 153.52065 38,000 241 443 0
2017-11-12 18:56:09 GMT -33.35477 153.52496 38,000 241 443 0
2017-11-12 18:56:06 GMT -33.35049 153.53339 38,000 241 443 0
2017-11-12 18:56:02 GMT -33.34753 153.53976 38,000 241 443 0
2017-11-12 18:56:00 GMT -33.34416 153.54626 38,000 241 443 0
2017-11-12 18:55:58 GMT -33.34360 153.54826 38,000 241 443 0
2017-11-12 18:55:54 GMT -33.33825 153.55910 38,000 241 443 0
2017-11-12 18:55:51 GMT -33.33443 153.56763 38,000 241 443 0
2017-11-12 18:55:47 GMT -33.33247 153.57188 38,000 241 443 0
2017-11-12 18:55:44 GMT -33.32824 153.58040 38,000 241 443 64
2017-11-12 18:55:41 GMT -33.32474 153.58875 38,000 241 443 0
2017-11-12 18:55:39 GMT -33.32291 153.59100 38,000 241 443 0
2017-11-12 18:55:36 GMT -33.32140 153.59518 38,000 241 443 0
2017-11-12 18:55:32 GMT -33.31637 153.60596 38,000 241 443 0
2017-11-12 18:55:30 GMT -33.31334 153.61232 38,000 241 443 0
2017-11-12 18:55:27 GMT -33.31169 153.61644 38,000 241 443 0
2017-11-12 18:55:25 GMT -33.31013 153.61864 38,000 241 443 0
2017-11-12 18:55:21 GMT -33.30478 153.62924 38,000 241 443 64
2017-11-12 18:55:18 GMT -33.30207 153.63567 38,000 241 443 0
2017-11-12 18:55:16 GMT -33.29956 153.63992 38,000 241 443 0
2017-11-12 18:55:14 GMT -33.29844 153.64420 38,000 241 443 0
2017-11-12 18:55:11 GMT -33.29421 153.65266 38,000 241 444 0
2017-11-12 18:55:08 GMT -33.29109 153.65918 38,000 241 443 0
2017-11-12 18:55:06 GMT -33.28912 153.66330 38,000 241 443 0
2017-11-12 18:55:03 GMT -33.28764 153.66550 38,000 241 444 0
2017-11-12 18:54:59 GMT -33.28249 153.67610 38,000 241 444 0
2017-11-12 18:54:57 GMT -33.28010 153.68259 38,000 241 444 -64
2017-11-12 18:54:55 GMT -33.27736 153.68674 38,000 241 444 0
2017-11-12 18:54:52 GMT -33.27635 153.68890 38,000 241 444 0
2017-11-12 18:54:49 GMT -33.27177 153.69957 38,000 241 444 0
2017-11-12 18:54:46 GMT -33.26866 153.70604 38,000 241 443 0
2017-11-12 18:54:43 GMT -33.26576 153.71230 38,000 241 443 0
2017-11-12 18:54:41 GMT -33.26521 153.71246 38,000 241 444 0
2017-11-12 18:54:37 GMT -33.25962 153.72519 38,000 241 444 0
2017-11-12 18:54:35 GMT -33.25752 153.72932 38,000 241 444 0
2017-11-12 18:54:33 GMT -33.25538 153.73383 38,000 241 444 0
2017-11-12 18:54:30 GMT -33.25378 153.73586 38,000 241 444 0
2017-11-12 18:54:26 GMT -33.24887 153.74638 38,000 241 444 0
2017-11-12 18:54:24 GMT -33.24618 153.75278 38,000 241 444 0
2017-11-12 18:54:21 GMT -33.24348 153.75719 38,000 241 444 0
2017-11-12 18:54:19 GMT -33.24258 153.75922 38,000 241 444 0
2017-11-12 18:54:12 GMT -33.23410 153.77844 38,000 241 444 0
2017-11-12 18:54:09 GMT -33.23090 153.78488 38,000 241 444 0
2017-11-12 18:54:07 GMT -33.23029 153.78484 38,000 241 444 0
2017-11-12 18:54:00 GMT -33.22142 153.80399 38,000 241 445 0
2017-11-12 18:53:57 GMT -33.21982 153.80832 38,000 241 445 0
2017-11-12 18:53:49 GMT -33.21186 153.82327 38,000 241 445 0
2017-11-12 18:53:46 GMT -33.20860 153.83174 38,000 241 444 0
2017-11-12 18:53:41 GMT -33.20261 153.84248 38,000 241 444 0
2017-11-12 18:53:39 GMT -33.20059 153.84666 38,000 241 445 0
2017-11-12 18:53:36 GMT -33.19734 153.85518 38,000 241 445 0
2017-11-12 18:53:34 GMT -33.19679 153.85518 38,000 241 445 0
2017-11-12 18:53:30 GMT -33.19147 153.86588 38,000 241 445 0
2017-11-12 18:53:28 GMT -33.18956 153.87003 38,000 241 445 0
2017-11-12 18:53:25 GMT -33.18588 153.87856 38,000 241 445 0
2017-11-12 18:53:23 GMT -33.18532 153.87860 38,000 241 445 0
2017-11-12 18:53:20 GMT -33.18013 153.88918 38,000 241 444 0
2017-11-12 18:53:19 GMT -33.18013 153.88918 38,000 241 444 0
2017-11-12 18:53:17 GMT -33.17798 153.89363 38,000 241 444 0
2017-11-12 18:53:14 GMT -33.17473 153.90215 38,000 241 445 0
2017-11-12 18:53:12 GMT -33.17359 153.90428 38,000 241 445 0
2017-11-12 18:53:08 GMT -33.16837 153.91489 38,000 241 444 0
2017-11-12 18:53:06 GMT -33.16665 153.91695 38,000 241 444 0
2017-11-12 18:53:02 GMT -33.16288 153.92552 38,000 241 445 0
2017-11-12 18:52:55 GMT -33.15525 153.94244 38,000 241 445 0
2017-11-12 18:52:53 GMT -33.15259 153.94666 38,000 241 445 -64
2017-11-12 18:52:51 GMT -33.15259 153.94666 38,000 241 445 -64
2017-11-12 18:52:48 GMT -33.14960 153.95323 38,000 241 445 -64
2017-11-12 18:52:46 GMT -33.14594 153.96169 38,000 241 445 0
2017-11-12 18:52:43 GMT -33.14333 153.96581 38,000 241 445 0
2017-11-12 18:52:39 GMT -33.14026 153.97238 38,000 241 444 0
2017-11-12 18:52:34 GMT -33.13421 153.98505 38,000 241 444 0
2017-11-12 18:52:32 GMT -33.13220 153.98930 38,000 241 444 0
2017-11-12 18:52:29 GMT -33.12964 153.99358 38,000 241 444 0
2017-11-12 18:52:27 GMT -33.12802 153.99788 38,000 241 444 0
2017-11-12 18:52:23 GMT -33.12378 154.00629 38,000 241 444 0
2017-11-12 18:52:20 GMT -33.11861 154.01700 38,000 241 444 0
2017-11-12 18:52:17 GMT -33.11719 154.02122 38,000 241 444 0
2017-11-12 18:52:13 GMT -33.11293 154.02963 38,000 241 444 0
2017-11-12 18:52:10 GMT -33.10930 154.03612 38,000 241 444 0
2017-11-12 18:52:08 GMT -33.10721 154.04044 38,000 241 444 0
2017-11-12 18:52:06 GMT -33.10625 154.04237 38,000 241 443 0
2017-11-12 18:52:03 GMT -33.10185 154.05298 38,000 241 443 0
2017-11-12 18:52:01 GMT -33.10071 154.05518 38,000 241 443 0
2017-11-12 18:51:58 GMT -33.09805 154.05936 38,000 241 443 0
2017-11-12 18:51:56 GMT -33.09552 154.06583 38,000 241 443 0
2017-11-12 18:51:52 GMT -33.09073 154.07428 38,000 241 443 0
2017-11-12 18:51:50 GMT -33.09022 154.07639 38,000 241 443 0
2017-11-12 18:51:48 GMT -33.08652 154.08490 38,000 241 443 0
2017-11-12 18:51:45 GMT -33.08309 154.09116 38,000 241 443 0
2017-11-12 18:51:42 GMT -33.08208 154.09335 38,000 241 443 0
2017-11-12 18:51:37 GMT -33.07530 154.10599 38,000 241 443 0
2017-11-12 18:51:35 GMT -33.07329 154.11034 38,000 241 443 0
2017-11-12 18:51:30 GMT -33.06619 154.12508 38,000 241 443 0
2017-11-12 18:51:26 GMT -33.06368 154.13136 38,000 241 443 0
2017-11-12 18:51:24 GMT -33.06162 154.13560 38,000 241 443 0
2017-11-12 18:51:19 GMT -33.05786 154.14211 38,000 241 443 0
2017-11-12 18:51:16 GMT -33.05525 154.14835 38,000 241 443 0
2017-11-12 18:51:14 GMT -33.05218 154.15466 38,000 241 443 0
2017-11-12 18:51:11 GMT -33.04948 154.16109 38,000 241 443 0
2017-11-12 18:51:06 GMT -33.04408 154.17165 38,000 241 443 0
2017-11-12 18:51:02 GMT -33.03923 154.18224 38,000 241 443 0
2017-11-12 18:50:58 GMT -33.03671 154.18642 38,000 241 443 0
2017-11-12 18:50:56 GMT -33.03337 154.19289 38,000 241 443 0
2017-11-12 18:50:53 GMT -33.02970 154.20135 38,000 241 443 0
2017-11-12 18:50:50 GMT -33.02710 154.20750 38,000 241 443 0
2017-11-12 18:50:45 GMT -33.02202 154.21616 38,000 241 443 0
2017-11-12 18:50:41 GMT -33.01804 154.22449 38,000 241 443 0
2017-11-12 18:50:39 GMT -33.01545 154.23083 38,000 241 443 0
2017-11-12 18:50:37 GMT -33.01494 154.23083 38,000 241 443 0
2017-11-12 18:50:34 GMT -33.01075 154.23930 38,000 241 442 64
2017-11-12 18:50:29 GMT -33.00664 154.24969 38,000 241 442 0
2017-11-12 18:50:27 GMT -33.00362 154.25403 38,000 241 442 64
2017-11-12 18:50:22 GMT -32.99968 154.26254 38,000 241 443 0
2017-11-12 18:50:17 GMT -32.99334 154.27725 38,000 241 442 0
2017-11-12 18:50:15 GMT -32.99231 154.27925 38,000 241 442 0
2017-11-12 18:50:12 GMT -32.98887 154.28560 38,000 241 442 64
2017-11-12 18:50:10 GMT -32.98673 154.28986 38,000 241 442 64
2017-11-12 18:50:08 GMT -32.98402 154.29622 38,000 241 442 64
2017-11-12 18:50:06 GMT -32.98146 154.30051 38,000 241 442 64
2017-11-12 18:50:02 GMT -32.97780 154.30881 38,000 241 442 0
2017-11-12 18:49:56 GMT -32.97230 154.31946 38,000 241 442 0
2017-11-12 18:49:53 GMT -32.96978 154.32361 38,000 241 442 0
2017-11-12 18:49:50 GMT -32.96606 154.33208 38,000 241 442 0
2017-11-12 18:49:46 GMT -32.96095 154.34258 38,000 240 442 0
2017-11-12 18:49:44 GMT -32.95921 154.34669 38,000 240 442 0
2017-11-12 18:49:42 GMT -32.95871 154.34669 38,000 240 442 0
2017-11-12 18:49:39 GMT -32.95358 154.35735 38,000 240 442 0
2017-11-12 18:49:35 GMT -32.94953 154.36581 38,000 240 442 0
2017-11-12 18:49:33 GMT -32.94795 154.36990 38,000 240 442 0
2017-11-12 18:49:31 GMT -32.94749 154.36984 38,000 240 442 0
2017-11-12 18:49:27 GMT -32.94218 154.38049 38,000 241 442 0
2017-11-12 18:49:23 GMT -32.93829 154.38889 38,000 241 442 0
2017-11-12 18:49:21 GMT -32.93724 154.39104 38,000 241 442 0
2017-11-12 18:49:19 GMT -32.93515 154.39513 38,000 241 442 0
2017-11-12 18:49:15 GMT -32.93091 154.40353 38,000 241 442 0
2017-11-12 18:49:10 GMT -32.92514 154.41626 38,000 241 442 0
2017-11-12 18:49:08 GMT -32.92410 154.41844 38,000 241 442 0
2017-11-12 18:49:06 GMT -32.92049 154.42471 38,000 241 442 0
2017-11-12 18:49:00 GMT -32.91357 154.43938 38,000 240 442 0
2017-11-12 18:48:55 GMT -32.90908 154.45006 38,000 240 442 0
2017-11-12 18:48:50 GMT -32.90438 154.45840 38,000 240 442 0
2017-11-12 18:48:48 GMT -32.90214 154.46255 38,000 240 442 0
2017-11-12 18:48:44 GMT -32.89746 154.47316 38,000 240 442 0
2017-11-12 18:48:38 GMT -32.89124 154.48569 38,000 240 442 0
2017-11-12 18:48:36 GMT -32.89018 154.48784 38,000 240 443 0
2017-11-12 18:48:33 GMT -32.88822 154.49203 38,000 240 443 0
2017-11-12 18:48:31 GMT -32.88567 154.49631 38,000 240 443 0
2017-11-12 18:48:28 GMT -32.88148 154.50465 38,000 240 443 0
2017-11-12 18:48:26 GMT -32.87933 154.50897 38,000 240 443 0
2017-11-12 18:48:24 GMT -32.87888 154.51096 38,000 240 443 0
2017-11-12 18:48:22 GMT -32.87471 154.51952 38,000 240 443 0
2017-11-12 18:48:15 GMT -32.86769 154.53426 38,000 240 443 0
2017-11-12 18:48:13 GMT -32.86675 154.53638 38,000 240 443 0
2017-11-12 18:48:11 GMT -32.86240 154.54485 38,000 240 442 0
2017-11-12 18:48:06 GMT -32.85818 154.55319 38,000 240 442 0
2017-11-12 18:48:03 GMT -32.85635 154.55737 38,000 240 442 0
2017-11-12 18:47:58 GMT -32.85038 154.56795 38,000 240 443 0
2017-11-12 18:47:58 GMT -32.85146 154.56589 38,000 240 443 0
2017-11-12 18:47:54 GMT -32.84619 154.57643 38,000 240 443 0
2017-11-12 18:47:51 GMT -32.84399 154.58269 38,000 240 443 0
2017-11-12 18:47:48 GMT -32.84102 154.58691 38,000 240 443 0
2017-11-12 18:47:44 GMT -32.83599 154.59731 38,000 240 443 0
2017-11-12 18:47:42 GMT -32.83324 154.60373 38,000 240 443 0
2017-11-12 18:47:39 GMT -32.83176 154.60577 38,000 240 443 0
2017-11-12 18:47:33 GMT -32.82426 154.62259 38,000 240 443 0
2017-11-12 18:47:31 GMT -32.82175 154.62674 38,000 240 444 0
2017-11-12 18:47:29 GMT -32.82129 154.62889 38,000 240 444 0
2017-11-12 18:47:21 GMT -32.81179 154.64783 38,000 240 444 -64
2017-11-12 18:47:19 GMT -32.80983 154.65202 38,000 240 444 -64
2017-11-12 18:47:17 GMT -32.80893 154.65416 38,000 240 444 -64
2017-11-12 18:47:09 GMT -32.80009 154.67108 38,000 240 444 0
2017-11-12 18:47:07 GMT -32.79854 154.67531 38,000 240 444 0
2017-11-12 18:46:59 GMT -32.78902 154.69423 38,000 240 443 0
2017-11-12 18:46:56 GMT -32.78751 154.69623 38,000 240 443 0
2017-11-12 18:46:48 GMT -32.77702 154.71733 38,000 240 443 0
2017-11-12 18:46:46 GMT -32.77556 154.72160 38,000 240 443 0
2017-11-12 18:46:42 GMT -32.77345 154.72585 38,000 240 443 0
2017-11-12 18:46:37 GMT -32.76631 154.74052 38,000 240 443 0
2017-11-12 18:46:36 GMT -32.76575 154.74042 38,000 240 443 0
2017-11-12 18:46:33 GMT -32.76374 154.74474 38,000 240 444 0
2017-11-12 18:46:26 GMT -32.75500 154.76363 38,000 240 444 0
2017-11-12 18:46:24 GMT -32.75299 154.76791 38,000 240 444 0
2017-11-12 18:46:22 GMT -32.75258 154.76770 38,000 240 444 0
2017-11-12 18:46:13 GMT -32.74200 154.78874 38,000 240 443 0
2017-11-12 18:46:11 GMT -32.74098 154.79086 38,000 240 443 0
2017-11-12 18:46:03 GMT -32.73074 154.81181 38,000 240 443 0
2017-11-12 18:46:00 GMT -32.72749 154.81813 38,000 240 443 0
2017-11-12 18:45:52 GMT -32.71967 154.83510 38,000 240 443 0
2017-11-12 18:45:49 GMT -32.71817 154.83705 38,000 240 443 0
2017-11-12 18:45:42 GMT -32.70979 154.85381 38,000 240 442 0
2017-11-12 18:45:39 GMT -32.70735 154.86026 38,000 240 442 0
2017-11-12 18:45:31 GMT -32.69778 154.87898 38,000 240 442 0
2017-11-12 18:45:28 GMT -32.69531 154.88312 38,000 240 442 0
2017-11-12 18:45:18 GMT -32.68442 154.90613 38,000 240 442 0
2017-11-12 18:45:16 GMT -32.68339 154.90823 38,000 240 442 0
2017-11-12 18:45:09 GMT -32.67558 154.92294 38,000 240 442 0
2017-11-12 18:45:05 GMT -32.67201 154.93146 38,000 240 441 0
2017-11-12 18:44:58 GMT -32.66368 154.94804 38,000 240 441 0
2017-11-12 18:44:54 GMT -32.66086 154.95432 38,000 240 441 0
2017-11-12 18:44:46 GMT -32.65179 154.97113 38,000 240 441 0
2017-11-12 18:44:44 GMT -32.64917 154.97726 38,000 240 441 0
2017-11-12 18:44:33 GMT -32.63832 154.99814 38,000 240 441 0
2017-11-12 18:44:22 GMT -32.62628 155.02330 38,000 240 441 0
2017-11-12 18:44:10 GMT -32.61424 155.04836 38,000 240 441 0
2017-11-12 18:43:59 GMT -32.60239 155.07129 38,000 240 441 -64
2017-11-12 18:43:49 GMT -32.59197 155.09225 38,000 240 441 0
2017-11-12 18:43:37 GMT -32.58037 155.11520 38,000 240 442 0
2017-11-12 18:43:26 GMT -32.56792 155.14018 38,000 240 441 0
2017-11-12 18:43:15 GMT -32.55730 155.16118 38,000 240 441 0
2017-11-12 18:43:04 GMT -32.54539 155.18613 38,000 240 441 0
2017-11-12 18:42:52 GMT -32.53354 155.20901 38,000 240 441 0
2017-11-12 18:42:41 GMT -32.52186 155.23407 38,000 240 441 0
2017-11-12 18:42:31 GMT -32.51087 155.25491 38,000 240 441 0
2017-11-12 18:42:19 GMT -32.49902 155.27791 38,000 240 441 64
2017-11-12 18:42:08 GMT -32.48927 155.29878 38,000 240 442 64
2017-11-12 18:42:06 GMT -32.48406 155.30911 38,000 240 441 64
2017-11-12 18:41:57 GMT -32.47773 155.32156 38,000 240 441 0
2017-11-12 18:41:51 GMT -32.46953 155.33817 38,000 240 441 0
2017-11-12 18:41:47 GMT -32.46643 155.34448 38,000 240 441 -64
2017-11-12 18:41:45 GMT -32.46474 155.34645 38,000 240 441 -64
2017-11-12 18:41:35 GMT -32.45254 155.37157 38,000 240 442 0
2017-11-12 18:41:23 GMT -32.43974 155.39651 38,000 240 441 0
2017-11-12 18:41:12 GMT -32.42912 155.41936 38,000 240 441 64
2017-11-12 18:41:02 GMT -32.41859 155.44006 38,000 240 441 0
2017-11-12 18:40:50 GMT -32.40614 155.46500 38,000 240 441 0
2017-11-12 18:40:39 GMT -32.39470 155.48576 38,000 240 441 0
2017-11-12 18:40:28 GMT -32.38374 155.50856 38,000 240 441 64
2017-11-12 18:40:17 GMT -32.37236 155.53125 38,000 240 441 64
2017-11-12 18:40:05 GMT -32.35968 155.55630 38,000 240 441 0
2017-11-12 18:39:54 GMT -32.34700 155.58113 38,000 240 441 0
2017-11-12 18:39:44 GMT -32.33716 155.60188 38,000 240 441 0
2017-11-12 18:39:32 GMT -32.32416 155.62666 38,000 240 441 0
2017-11-12 18:39:22 GMT -32.31340 155.64754 38,000 240 442 0
2017-11-12 18:38:54 GMT -32.28410 155.70549 38,000 240 442 0
2017-11-12 18:38:37 GMT -32.26762 155.73872 38,000 240 442 0
2017-11-12 18:38:24 GMT -32.25223 155.76978 38,000 240 442 0
2017-11-12 18:38:09 GMT -32.23128 155.81129 38,000 240 441 0
2017-11-12 18:35:08 GMT -32.04799 156.17120 38,000 240 438 64
2017-11-12 18:35:06 GMT -32.04575 156.17538 38,000 240 438 0
2017-11-12 18:34:55 GMT -32.03385 156.19785 38,000 239 438 0
2017-11-12 18:34:44 GMT -32.02319 156.21825 38,000 239 438 0
2017-11-12 18:34:33 GMT -32.01109 156.24290 38,000 239 438 0
2017-11-12 18:34:21 GMT -31.99750 156.26953 38,000 239 439 0
2017-11-12 18:34:10 GMT -31.98724 156.28986 38,000 239 438 -64
2017-11-12 18:34:00 GMT -31.97640 156.31035 38,000 239 437 0
2017-11-12 18:33:48 GMT -31.96422 156.33281 38,000 239 437 0
2017-11-12 18:33:37 GMT -31.95282 156.35506 38,000 240 437 64
2017-11-12 18:33:27 GMT -31.94182 156.37749 38,000 239 437 64
2017-11-12 18:33:15 GMT -31.92939 156.40198 38,000 239 438 -64
2017-11-12 18:33:03 GMT -31.91766 156.42455 38,000 239 438 0
2017-11-12 18:32:53 GMT -31.90588 156.44695 38,000 239 438 64
2017-11-12 18:32:41 GMT -31.89382 156.47144 38,000 239 438 0
2017-11-12 18:32:31 GMT -31.88335 156.49178 38,000 239 438 -64
2017-11-12 18:32:20 GMT -31.87116 156.51414 38,000 239 438 0
2017-11-12 18:32:08 GMT -31.85912 156.53864 38,000 239 438 0
2017-11-12 18:31:57 GMT -31.84708 156.56113 38,000 239 438 0
2017-11-12 18:31:46 GMT -31.83652 156.58147 38,000 239 437 0
2017-11-12 18:31:35 GMT -31.82404 156.60574 38,000 239 437 0
2017-11-12 18:31:23 GMT -31.81210 156.62817 38,000 239 437 0
2017-11-12 18:31:13 GMT -31.80153 156.64845 38,000 239 436 0
2017-11-12 18:31:02 GMT -31.78940 156.67284 38,000 239 437 0
2017-11-12 18:30:50 GMT -31.77716 156.69521 38,000 239 436 0
2017-11-12 18:30:40 GMT -31.76578 156.71748 38,000 239 438 0
2017-11-12 18:29:48 GMT -31.71075 156.82283 38,000 239 438 0
2017-11-12 18:29:43 GMT -31.70682 156.83092 38,000 239 438 0
2017-11-12 18:29:33 GMT -31.69570 156.85324 38,000 239 438 0
2017-11-12 18:29:22 GMT -31.68343 156.87561 38,000 239 438 0
2017-11-12 18:29:10 GMT -31.67177 156.89789 38,000 239 438 0
2017-11-12 18:29:00 GMT -31.66072 156.92026 38,000 239 438 0
2017-11-12 18:28:49 GMT -31.64817 156.94261 38,000 239 438 0
2017-11-12 18:28:37 GMT -31.63592 156.96706 38,000 239 438 0
2017-11-12 18:28:27 GMT -31.62545 156.98721 38,000 239 439 0
2017-11-12 18:28:15 GMT -31.61348 157.00964 38,000 239 439 -64
2017-11-12 18:28:04 GMT -31.60084 157.03394 38,000 239 438 0
2017-11-12 18:27:52 GMT -31.58872 157.05626 38,000 239 438 0
2017-11-12 18:27:41 GMT -31.57615 157.08060 38,000 239 439 0
2017-11-12 18:27:30 GMT -31.56496 157.10304 38,000 239 439 0

Making use of Plane Finder data

You are free to use the raw flight data, aircraft information and images provided in this report for your own purposes provided the data is correctly attributed to Plane Finder. We ask that you please credit Plane Finder and link to planefinder.net in close proximity to the content.

Optionally one of the following logos (no smaller then 150x24px) can be used and must link to planefinder.net

Embedding the Plane Finder map

You are welcome to embed the Plane Finder playback map on your website to offer visitors a more interactive experience. We suggest using the following HTML code:

<iframe src="//planefinder.net/data/report/QF74-VH-OJT-7700-squawk-2017-11-12/map" width="800" height="600" seamless="seamless"></iframe>

Where our data comes from

Plane Finder has a global network of data feeds and antenna radars that receive data broadcast directly from aircraft. The primary technologies used are ADS-B and MLAT. We also show feeds from the FAA and a FLARM glider feed.

Click here to find out more about the Plane Finder network.

How we collect our data